»·PEaware :: N5229C KVNY-KSAN

N5229C :: KVNY-KSAN

FLIGHT INFORMATION

Flight Status: Arrived
Operator: Privately registered:
United States
More flights under this callsign
Pilot: Dave M. (3460)
Aircraft: Unknown
(T206)
More flights by this aircraft type
Origin: KVNY Van Nuys
United States
Destination: KSAN San Diego Intl-Lindbergh
United States
More flights between these airports :: More routes between these airports
Route: +ADAMM2 ADAMM V186 HAILE V66 MZB
File this flight plan on PilotEdge
Remarks:
Altitude:
(Current/Filed)
70ft
Speed:
(Current/Filed)
140kts
Departed: 08-May-18 08:44 PM
Arrived: 08-May-18 09:32 PM
Distance/Time
Traveled:
110nm/0:48
Distance/Time
To Go:
Arrived

Flight Plot

Page will automatically refresh every two minutes.


Map Options




Map Legend


Flown Route
Filed Route
Departure Airport
Arrival Airport
Navaid (VOR, NDB)
Fix

Horizontal Profiles

Position Reports

Time Latitude Longitude Heading Altitude Ground
Speed
08-May-18 20:22 34.211324 -118.492019 88 804ft 0kts
08-May-18 20:23 34.211324 -118.492019 88 804ft 0kts
08-May-18 20:24 34.211324 -118.492019 88 804ft 0kts
08-May-18 20:25 34.211324 -118.492019 88 804ft 0kts
08-May-18 20:26 34.211324 -118.492019 88 804ft 0kts
08-May-18 20:27 34.211324 -118.492019 88 804ft 0kts
08-May-18 20:28 34.211324 -118.492019 88 804ft 0kts
08-May-18 20:29 34.211324 -118.492019 88 804ft 0kts
08-May-18 20:30 34.211324 -118.492019 88 804ft 0kts
08-May-18 20:31 34.211324 -118.492019 88 804ft 0kts
08-May-18 20:32 34.211324 -118.492019 88 804ft 0kts
08-May-18 20:33 34.211324 -118.492019 88 804ft 0kts
08-May-18 20:34 34.211324 -118.492019 88 804ft 0kts
08-May-18 20:35 34.211324 -118.492019 88 804ft 0kts
08-May-18 20:36 34.211324 -118.492019 88 804ft 0kts
08-May-18 20:37 34.211324 -118.492019 88 804ft 0kts
08-May-18 20:38 34.211723 -118.491794 4 805ft 6kts
08-May-18 20:39 34.214784 -118.492134 351 804ft 14kts
08-May-18 20:40 34.218714 -118.492096 59 804ft 0kts
08-May-18 20:41 34.218718 -118.492088 58 804ft 0kts
08-May-18 20:42 34.218718 -118.492088 58 804ft 0kts
08-May-18 20:43 34.218719 -118.492087 58 804ft 0kts
08-May-18 20:44 34.207658 -118.490204 175 956ft 101kts
08-May-18 20:45 34.178254 -118.487187 148 2105ft 114kts
08-May-18 20:46 34.159568 -118.458140 119 3315ft 113kts
08-May-18 20:47 34.143797 -118.428307 124 4524ft 104kts
08-May-18 20:48 34.127557 -118.399669 96 5538ft 106kts
08-May-18 20:49 34.131156 -118.364065 81 6493ft 108kts
08-May-18 20:50 34.135397 -118.326604 81 7123ft 135kts
08-May-18 20:51 34.141497 -118.274260 81 7111ft 169kts
08-May-18 20:52 34.148203 -118.217199 81 7108ft 174kts
08-May-18 20:53 34.135786 -118.164344 127 7106ft 174kts
08-May-18 20:54 34.107361 -118.117372 116 7109ft 174kts
08-May-18 20:55 34.088901 -118.063355 111 7107ft 174kts
08-May-18 20:56 34.072120 -118.010566 110 7107ft 174kts
08-May-18 20:57 34.049287 -117.938654 110 7107ft 174kts
08-May-18 20:58 34.015636 -117.832965 111 7107ft 174kts
08-May-18 20:59 33.981416 -117.725868 111 7107ft 174kts
08-May-18 21:00 33.958869 -117.655506 111 7098ft 175kts
08-May-18 21:01 33.942671 -117.605057 111 7098ft 174kts
08-May-18 21:02 33.909450 -117.522443 145 8095ft 147kts
08-May-18 21:03 33.842288 -117.466187 145 9103ft 166kts
08-May-18 21:04 33.764459 -117.401006 145 9099ft 175kts
08-May-18 21:05 33.685104 -117.334716 145 9099ft 175kts
08-May-18 21:06 33.622458 -117.282492 145 9099ft 175kts
08-May-18 21:07 33.568923 -117.237938 145 9099ft 175kts
08-May-18 21:08 33.516009 -117.193969 145 9099ft 175kts
08-May-18 21:09 33.456494 -117.157118 169 9100ft 175kts
08-May-18 21:10 33.364945 -117.137673 169 9099ft 175kts
08-May-18 21:11 33.298470 -117.116175 162 8699ft 181kts
08-May-18 21:12 33.254906 -117.099600 162 7976ft 182kts
08-May-18 21:13 33.189717 -117.074788 162 6981ft 178kts
08-May-18 21:14 33.145116 -117.057812 162 6318ft 177kts
08-May-18 21:15 33.088584 -117.031823 151 5448ft 176kts
08-May-18 21:16 33.006929 -116.978785 151 5052ft 171kts
08-May-18 21:17 32.941697 -116.936200 151 5052ft 171kts
08-May-18 21:18 32.887375 -116.900733 151 5052ft 171kts
08-May-18 21:19 32.844521 -116.872751 151 5052ft 171kts
08-May-18 21:20 32.802628 -116.846456 169 5034ft 172kts
08-May-18 21:21 32.755944 -116.856225 191 4466ft 170kts
08-May-18 21:22 32.710731 -116.866893 191 4049ft 156kts
08-May-18 21:23 32.670918 -116.879126 226 4047ft 146kts
08-May-18 21:24 32.679313 -116.920539 266 4057ft 143kts
08-May-18 21:25 32.680295 -116.966833 283 4046ft 134kts
08-May-18 21:26 32.689288 -117.006816 286 3495ft 120kts
08-May-18 21:27 32.698335 -117.044205 286 2751ft 119kts
08-May-18 21:28 32.707488 -117.081709 285 2013ft 119kts
08-May-18 21:29 32.716402 -117.118883 285 1285ft 118kts
08-May-18 21:30 32.724773 -117.153376 285 594ft 86kts
08-May-18 21:31 32.730654 -117.177892 285 108ft 74kts
08-May-18 21:32 32.734121 -117.187937 62 21ft 2kts
08-May-18 21:33 32.732306 -117.179780 97 21ft 32kts
08-May-18 21:34 32.732995 -117.178952 38 21ft 0kts

Navigation Log

Ident Type
1. KVNY Airport
2. ADAMM Fix
3. ADAMM Fix
4. BAYJY Fix
5. TIFNI Fix
6. PDZ Navaid
7. NIKKL Fix
8. WESIN Fix
9. TANNR Fix
10. DEGLE Fix
11. ROBNN Fix
12. HAILE Fix
13. HAILE Fix
14. MZB Navaid
15. KSAN Airport